sensor_id;sensor_type;location;lat;lon;timestamp;P1;durP1;ratioP1;P2;durP2;ratioP2
39698;SDS011;25372;50.582;12.250;2022-10-28T00:00:07;3.85;;;2.85;;
39698;SDS011;25372;50.582;12.250;2022-10-28T00:10:31;6.05;;;3.47;;
39698;SDS011;25372;50.582;12.250;2022-10-28T00:20:52;6.88;;;3.22;;
39698;SDS011;25372;50.582;12.250;2022-10-28T00:31:21;7.63;;;3.55;;
39698;SDS011;25372;50.582;12.250;2022-10-28T00:41:44;8.40;;;3.95;;
39698;SDS011;25372;50.582;12.250;2022-10-28T00:52:09;6.90;;;3.83;;
39698;SDS011;25372;50.582;12.250;2022-10-28T01:02:36;5.20;;;3.50;;
39698;SDS011;25372;50.582;12.250;2022-10-28T01:13:06;5.95;;;3.55;;
39698;SDS011;25372;50.582;12.250;2022-10-28T01:23:34;7.47;;;4.70;;
39698;SDS011;25372;50.582;12.250;2022-10-28T01:34:01;9.45;;;3.50;;
39698;SDS011;25372;50.582;12.250;2022-10-28T01:44:30;7.57;;;4.38;;
39698;SDS011;25372;50.582;12.250;2022-10-28T01:55:00;10.98;;;5.13;;
39698;SDS011;25372;50.582;12.250;2022-10-28T02:05:36;9.27;;;4.43;;
39698;SDS011;25372;50.582;12.250;2022-10-28T02:16:01;11.75;;;5.00;;
39698;SDS011;25372;50.582;12.250;2022-10-28T02:26:30;8.25;;;3.60;;
39698;SDS011;25372;50.582;12.250;2022-10-28T02:36:58;10.95;;;5.85;;
39698;SDS011;25372;50.582;12.250;2022-10-28T02:47:24;13.27;;;6.25;;
39698;SDS011;25372;50.582;12.250;2022-10-28T02:57:50;7.90;;;4.30;;
39698;SDS011;25372;50.582;12.250;2022-10-28T03:08:11;11.77;;;4.97;;
39698;SDS011;25372;50.582;12.250;2022-10-28T03:18:34;11.60;;;5.38;;
39698;SDS011;25372;50.582;12.250;2022-10-28T03:28:54;10.57;;;5.32;;
39698;SDS011;25372;50.582;12.250;2022-10-28T03:39:17;7.18;;;4.80;;
39698;SDS011;25372;50.582;12.250;2022-10-28T03:49:38;13.75;;;6.28;;
39698;SDS011;25372;50.582;12.250;2022-10-28T04:00:00;12.95;;;5.60;;
39698;SDS011;25372;50.582;12.250;2022-10-28T04:10:31;9.55;;;5.90;;
39698;SDS011;25372;50.582;12.250;2022-10-28T04:20:53;7.88;;;4.55;;
39698;SDS011;25372;50.582;12.250;2022-10-28T04:31:14;9.45;;;5.25;;
39698;SDS011;25372;50.582;12.250;2022-10-28T04:41:37;9.10;;;4.70;;
39698;SDS011;25372;50.582;12.250;2022-10-28T04:51:58;12.30;;;5.30;;
39698;SDS011;25372;50.582;12.250;2022-10-28T05:02:22;10.05;;;4.65;;
39698;SDS011;25372;50.582;12.250;2022-10-28T05:12:43;10.52;;;6.35;;
39698;SDS011;25372;50.582;12.250;2022-10-28T05:23:06;12.60;;;5.25;;
39698;SDS011;25372;50.582;12.250;2022-10-28T05:33:28;10.90;;;5.97;;
39698;SDS011;25372;50.582;12.250;2022-10-28T05:43:51;12.95;;;5.72;;
39698;SDS011;25372;50.582;12.250;2022-10-28T05:54:11;18.33;;;5.80;;
39698;SDS011;25372;50.582;12.250;2022-10-28T06:04:34;10.70;;;5.88;;
39698;SDS011;25372;50.582;12.250;2022-10-28T06:14:55;11.13;;;5.88;;
39698;SDS011;25372;50.582;12.250;2022-10-28T06:25:17;8.85;;;6.00;;
39698;SDS011;25372;50.582;12.250;2022-10-28T06:35:40;12.93;;;5.27;;
39698;SDS011;25372;50.582;12.250;2022-10-28T06:46:03;16.67;;;5.20;;
39698;SDS011;25372;50.582;12.250;2022-10-28T06:56:24;14.27;;;5.20;;
39698;SDS011;25372;50.582;12.250;2022-10-28T07:06:46;8.77;;;4.60;;
39698;SDS011;25372;50.582;12.250;2022-10-28T07:17:07;16.50;;;7.13;;
39698;SDS011;25372;50.582;12.250;2022-10-28T07:27:30;6.40;;;4.40;;
39698;SDS011;25372;50.582;12.250;2022-10-28T07:37:51;9.18;;;5.13;;
39698;SDS011;25372;50.582;12.250;2022-10-28T07:48:13;11.02;;;5.50;;
39698;SDS011;25372;50.582;12.250;2022-10-28T07:58:34;12.85;;;4.65;;
39698;SDS011;25372;50.582;12.250;2022-10-28T08:08:57;9.82;;;4.95;;
39698;SDS011;25372;50.582;12.250;2022-10-28T08:19:18;8.80;;;4.22;;
39698;SDS011;25372;50.582;12.250;2022-10-28T08:29:40;6.75;;;4.10;;
39698;SDS011;25372;50.582;12.250;2022-10-28T08:40:01;6.15;;;3.42;;
39698;SDS011;25372;50.582;12.250;2022-10-28T08:50:24;8.07;;;4.07;;
39698;SDS011;25372;50.582;12.250;2022-10-28T09:00:50;5.43;;;3.42;;
39698;SDS011;25372;50.582;12.250;2022-10-28T09:11:37;10.07;;;3.17;;
39698;SDS011;25372;50.582;12.250;2022-10-28T09:22:16;8.77;;;3.53;;
39698;SDS011;25372;50.582;12.250;2022-10-28T09:32:44;12.30;;;3.75;;
39698;SDS011;25372;50.582;12.250;2022-10-28T09:43:15;8.98;;;3.55;;
39698;SDS011;25372;50.582;12.250;2022-10-28T09:53:46;7.90;;;3.50;;
39698;SDS011;25372;50.582;12.250;2022-10-28T10:04:11;6.10;;;2.83;;
39698;SDS011;25372;50.582;12.250;2022-10-28T10:14:39;6.07;;;3.35;;
39698;SDS011;25372;50.582;12.250;2022-10-28T10:25:11;4.05;;;2.15;;
39698;SDS011;25372;50.582;12.250;2022-10-28T10:35:51;5.88;;;3.20;;
39698;SDS011;25372;50.582;12.250;2022-10-28T10:46:14;5.30;;;2.85;;
39698;SDS011;25372;50.582;12.250;2022-10-28T10:56:37;5.25;;;2.92;;
39698;SDS011;25372;50.582;12.250;2022-10-28T11:06:58;4.03;;;2.75;;
39698;SDS011;25372;50.582;12.250;2022-10-28T11:17:22;5.82;;;3.40;;
39698;SDS011;25372;50.582;12.250;2022-10-28T11:27:48;3.88;;;2.67;;
39698;SDS011;25372;50.582;12.250;2022-10-28T11:38:30;4.47;;;2.70;;
39698;SDS011;25372;50.582;12.250;2022-10-28T11:49:13;5.22;;;3.42;;
39698;SDS011;25372;50.582;12.250;2022-10-28T12:00:05;5.32;;;3.10;;
39698;SDS011;25372;50.582;12.250;2022-10-28T12:10:43;6.00;;;2.97;;
39698;SDS011;25372;50.582;12.250;2022-10-28T12:21:16;5.22;;;3.13;;
39698;SDS011;25372;50.582;12.250;2022-10-28T12:31:44;4.25;;;2.75;;
39698;SDS011;25372;50.582;12.250;2022-10-28T12:42:11;3.33;;;2.63;;
39698;SDS011;25372;50.582;12.250;2022-10-28T12:52:37;5.03;;;3.17;;
39698;SDS011;25372;50.582;12.250;2022-10-28T13:03:05;6.82;;;2.70;;
39698;SDS011;25372;50.582;12.250;2022-10-28T13:13:31;6.80;;;3.05;;
39698;SDS011;25372;50.582;12.250;2022-10-28T13:24:04;7.00;;;3.53;;
39698;SDS011;25372;50.582;12.250;2022-10-28T13:34:34;14.68;;;4.32;;
39698;SDS011;25372;50.582;12.250;2022-10-28T13:45:00;5.13;;;2.87;;
39698;SDS011;25372;50.582;12.250;2022-10-28T13:55:23;12.00;;;4.20;;
39698;SDS011;25372;50.582;12.250;2022-10-28T14:05:52;7.32;;;3.88;;
39698;SDS011;25372;50.582;12.250;2022-10-28T14:16:22;4.85;;;2.88;;
39698;SDS011;25372;50.582;12.250;2022-10-28T14:49:01;5.43;;;2.88;;
39698;SDS011;25372;50.582;12.250;2022-10-28T14:59:25;10.27;;;4.20;;
39698;SDS011;25372;50.582;12.250;2022-10-28T15:09:50;6.80;;;4.03;;
39698;SDS011;25372;50.582;12.250;2022-10-28T15:20:19;8.20;;;4.07;;
39698;SDS011;25372;50.582;12.250;2022-10-28T15:30:41;8.88;;;4.30;;
39698;SDS011;25372;50.582;12.250;2022-10-28T16:02:58;10.60;;;3.70;;
39698;SDS011;25372;50.582;12.250;2022-10-28T16:13:21;9.18;;;4.63;;
39698;SDS011;25372;50.582;12.250;2022-10-28T16:23:47;10.73;;;5.90;;
39698;SDS011;25372;50.582;12.250;2022-10-28T16:34:11;7.53;;;4.03;;
39698;SDS011;25372;50.582;12.250;2022-10-28T16:44:35;6.80;;;4.10;;
39698;SDS011;25372;50.582;12.250;2022-10-28T16:54:56;10.20;;;4.85;;
39698;SDS011;25372;50.582;12.250;2022-10-28T17:05:20;9.35;;;4.68;;
39698;SDS011;25372;50.582;12.250;2022-10-28T17:15:42;8.07;;;4.97;;
39698;SDS011;25372;50.582;12.250;2022-10-28T17:26:05;8.07;;;4.03;;
39698;SDS011;25372;50.582;12.250;2022-10-28T17:36:26;8.07;;;5.68;;
39698;SDS011;25372;50.582;12.250;2022-10-28T17:46:48;10.35;;;4.82;;
39698;SDS011;25372;50.582;12.250;2022-10-28T17:57:10;11.48;;;4.93;;
39698;SDS011;25372;50.582;12.250;2022-10-28T18:07:32;9.25;;;4.43;;
39698;SDS011;25372;50.582;12.250;2022-10-28T18:17:53;11.77;;;6.38;;
39698;SDS011;25372;50.582;12.250;2022-10-28T18:28:15;9.75;;;4.03;;
39698;SDS011;25372;50.582;12.250;2022-10-28T18:38:41;6.75;;;4.38;;
39698;SDS011;25372;50.582;12.250;2022-10-28T18:49:04;8.77;;;4.22;;
39698;SDS011;25372;50.582;12.250;2022-10-28T18:59:25;7.95;;;3.90;;
39698;SDS011;25372;50.582;12.250;2022-10-28T19:09:47;11.07;;;5.30;;
39698;SDS011;25372;50.582;12.250;2022-10-28T19:20:08;5.28;;;3.20;;
39698;SDS011;25372;50.582;12.250;2022-10-28T19:30:31;6.53;;;3.63;;
39698;SDS011;25372;50.582;12.250;2022-10-28T19:40:54;8.07;;;4.10;;
39698;SDS011;25372;50.582;12.250;2022-10-28T19:51:23;6.70;;;4.43;;
39698;SDS011;25372;50.582;12.250;2022-10-28T20:01:45;10.97;;;5.63;;
39698;SDS011;25372;50.582;12.250;2022-10-28T20:12:09;7.53;;;3.97;;
39698;SDS011;25372;50.582;12.250;2022-10-28T20:22:30;8.80;;;4.15;;
39698;SDS011;25372;50.582;12.250;2022-10-28T20:32:53;8.48;;;4.97;;
39698;SDS011;25372;50.582;12.250;2022-10-28T20:43:14;11.48;;;4.50;;
39698;SDS011;25372;50.582;12.250;2022-10-28T20:53:37;7.32;;;3.97;;
39698;SDS011;25372;50.582;12.250;2022-10-28T21:03:59;10.40;;;4.57;;
39698;SDS011;25372;50.582;12.250;2022-10-28T21:14:23;11.05;;;4.22;;
39698;SDS011;25372;50.582;12.250;2022-10-28T21:24:44;12.05;;;4.20;;
39698;SDS011;25372;50.582;12.250;2022-10-28T21:35:07;6.93;;;3.65;;
39698;SDS011;25372;50.582;12.250;2022-10-28T21:45:28;8.43;;;3.97;;
39698;SDS011;25372;50.582;12.250;2022-10-28T21:55:50;6.35;;;3.67;;
39698;SDS011;25372;50.582;12.250;2022-10-28T22:06:12;7.05;;;3.80;;
39698;SDS011;25372;50.582;12.250;2022-10-28T22:16:35;7.40;;;4.13;;
39698;SDS011;25372;50.582;12.250;2022-10-28T22:26:57;10.25;;;3.88;;
39698;SDS011;25372;50.582;12.250;2022-10-28T22:37:19;7.78;;;4.88;;
39698;SDS011;25372;50.582;12.250;2022-10-28T22:47:40;7.90;;;4.65;;
39698;SDS011;25372;50.582;12.250;2022-10-28T22:58:02;7.22;;;3.97;;
39698;SDS011;25372;50.582;12.250;2022-10-28T23:08:24;6.85;;;3.85;;
39698;SDS011;25372;50.582;12.250;2022-10-28T23:18:46;8.20;;;4.07;;
39698;SDS011;25372;50.582;12.250;2022-10-28T23:29:07;7.07;;;4.03;;
39698;SDS011;25372;50.582;12.250;2022-10-28T23:39:29;7.22;;;3.83;;
39698;SDS011;25372;50.582;12.250;2022-10-28T23:49:50;11.48;;;3.45;;
